Time;durP1;ratioP1;P1;durP2;ratioP2;P2;SDS_P1;SDS_P2;PMS_P1;PMS_P2;Temp;Humidity;BMP_temperature;BMP_pressure;BME280_temperature;BME280_humidity;BME280_pressure;Samples;Min_cycle;Max_cycle;Signal;HPM_P1;HPM_P2
2022/01/17 00:00:27;;;;;;;7.90;2.77;;;4.70;99.90;3.80;99017;;;;592253;240;24052;-83
2022/01/17 00:02:54;;;;;;;12.20;3.77;;;4.80;99.90;3.80;99010;;;;585751;240;24067;-83
2022/01/17 00:05:22;;;;;;;7.60;2.57;;;4.80;99.90;3.80;99004;;;;592468;239;24124;-83
2022/01/17 00:07:50;;;;;;;5.27;2.30;;;4.80;99.90;3.80;98987;;;;588978;240;24058;-83
2022/01/17 00:10:18;;;;;;;4.97;2.93;;;4.80;99.90;3.80;98997;;;;588520;240;24104;-83
2022/01/17 00:12:50;;;;;;;7.17;3.07;;;4.80;99.90;3.90;99004;;;;588616;240;24126;-83
2022/01/17 00:15:30;;;;;;;6.33;2.80;;;4.80;99.90;3.90;99002;;;;588090;240;24053;-83
2022/01/17 00:17:44;;;;;;;6.90;2.10;;;4.80;99.90;3.90;99016;;;;590689;240;24063;-83
2022/01/17 00:20:14;;;;;;;8.40;2.60;;;4.80;99.90;3.90;99008;;;;597596;239;24088;-84
2022/01/17 00:22:39;;;;;;;7.30;1.77;;;4.80;99.90;3.90;98998;;;;596743;240;25058;-84
2022/01/17 00:25:12;;;;;;;4.30;2.20;;;4.80;99.90;3.90;99013;;;;587457;240;24038;-84
2022/01/17 00:27:43;;;;;;;4.43;1.40;;;4.90;99.90;3.90;99008;;;;587644;240;24083;-84
2022/01/17 00:30:09;;;;;;;4.67;2.10;;;4.90;99.90;4.00;99004;;;;587098;240;24044;-83
2022/01/17 00:32:37;;;;;;;1.43;1.33;;;4.90;99.90;4.00;99010;;;;587704;240;24036;-84
2022/01/17 00:35:08;;;;;;;5.87;2.53;;;4.80;99.90;4.00;99003;;;;591420;240;24108;-83
2022/01/17 00:37:33;;;;;;;9.73;2.20;;;4.90;99.90;4.00;98997;;;;586520;240;24044;-82
2022/01/17 00:40:04;;;;;;;5.73;2.37;;;4.90;99.90;4.00;99003;;;;587123;240;24028;-84
2022/01/17 00:42:33;;;;;;;2.37;2.13;;;4.90;99.90;4.00;99007;;;;595934;240;24078;-84
2022/01/17 00:44:57;;;;;;;2.63;2.20;;;4.90;99.90;4.00;99008;;;;595983;240;24044;-82
2022/01/17 00:47:29;;;;;;;7.40;1.73;;;4.90;99.90;4.00;98984;;;;591066;240;24036;-83
2022/01/17 00:49:53;;;;;;;4.70;1.13;;;4.90;99.90;3.90;98959;;;;586878;240;24044;-84
2022/01/17 00:52:21;;;;;;;3.30;1.50;;;4.80;99.90;3.90;98977;;;;591195;240;24073;-84
2022/01/17 00:54:52;;;;;;;3.83;1.87;;;4.80;99.90;3.90;98967;;;;591172;240;24068;-84
2022/01/17 00:57:17;;;;;;;3.83;1.63;;;4.80;99.90;3.90;98974;;;;588172;240;24147;-84
2022/01/17 00:59:44;;;;;;;11.37;3.10;;;4.80;99.90;3.90;98963;;;;596703;240;24076;-84
2022/01/17 01:02:13;;;;;;;3.93;2.03;;;4.80;99.90;3.90;98966;;;;591311;240;24076;-82
2022/01/17 01:04:45;;;;;;;5.20;1.10;;;4.80;99.90;3.90;98945;;;;591207;240;24078;-84
2022/01/17 01:07:10;;;;;;;5.83;1.57;;;4.80;99.90;3.90;98948;;;;587187;240;24124;-85
2022/01/17 01:09:52;;;;;;;5.03;2.33;;;4.80;99.90;3.90;98914;;;;591137;240;24041;-85
2022/01/17 01:12:11;;;;;;;7.90;0.87;;;4.80;99.90;3.90;98924;;;;591276;240;24065;-85
2022/01/17 01:14:40;;;;;;;7.83;2.20;;;4.80;99.90;3.90;98909;;;;584819;240;24322;-84
2022/01/17 01:17:08;;;;;;;1.30;0.73;;;4.80;99.90;3.90;98929;;;;582476;240;24063;-86
2022/01/17 01:19:40;;;;;;;5.07;1.03;;;4.80;99.90;3.90;98913;;;;591972;240;24066;-83
2022/01/17 01:27:46;;;;;;;4.80;2.07;;;4.80;99.90;3.90;98865;;;;591757;239;24043;-86
2022/01/17 01:30:12;;;;;;;7.83;2.30;;;4.80;99.90;3.90;98872;;;;591164;240;24079;-84
2022/01/17 01:32:44;;;;;;;4.00;1.37;;;4.80;99.90;3.90;98877;;;;596270;240;24142;-84
2022/01/17 01:35:09;;;;;;;3.40;1.50;;;4.80;99.90;3.90;98862;;;;585762;240;24047;-86
2022/01/17 01:37:33;;;;;;;3.70;1.27;;;4.80;99.90;3.90;98855;;;;596167;240;25103;-87
2022/01/17 01:40:04;;;;;;;12.63;1.37;;;4.80;99.90;3.90;98823;;;;591708;240;24147;-87
2022/01/17 01:42:31;;;;;;;3.50;1.30;;;4.80;99.90;3.90;98831;;;;587531;240;24063;-86
2022/01/17 01:44:57;;;;;;;10.73;1.90;;;4.80;99.90;3.90;98828;;;;591587;240;24125;-84
2022/01/17 01:47:25;;;;;;;8.97;1.87;;;4.80;99.90;3.90;98824;;;;587362;240;24044;-85
2022/01/17 01:49:56;;;;;;;8.43;1.40;;;4.80;99.90;3.90;98828;;;;591188;240;24073;-87
2022/01/17 01:52:22;;;;;;;8.20;1.80;;;4.80;99.90;3.90;98810;;;;590846;240;24029;-86
2022/01/17 01:54:51;;;;;;;5.33;1.20;;;4.90;99.90;3.90;98809;;;;587560;240;24051;-85
2022/01/17 01:57:19;;;;;;;11.00;1.77;;;4.80;99.90;3.90;98792;;;;590529;234;24154;-85
2022/01/17 01:59:52;;;;;;;3.87;1.50;;;4.80;99.90;4.00;98808;;;;591546;234;24106;-85
2022/01/17 02:02:19;;;;;;;11.93;1.93;;;4.80;99.90;4.00;98794;;;;577708;246;24114;-85
2022/01/17 02:04:47;;;;;;;4.53;1.33;;;4.80;99.90;3.90;98799;;;;584261;235;24032;-83
2022/01/17 02:07:13;;;;;;;4.60;1.67;;;4.80;99.90;3.90;98785;;;;585031;245;24123;-85
2022/01/17 02:09:42;;;;;;;8.97;1.80;;;4.80;99.90;3.90;98776;;;;589634;240;24136;-84
2022/01/17 02:12:13;;;;;;;5.23;1.57;;;4.80;99.90;3.90;98780;;;;580455;245;24090;-83
2022/01/17 02:14:41;;;;;;;11.50;1.93;;;4.80;99.90;3.90;98765;;;;574505;245;24067;-82
2022/01/17 02:17:05;;;;;;;13.57;1.43;;;4.80;99.90;3.90;98759;;;;592757;234;23998;-86
2022/01/17 02:19:34;;;;;;;8.80;1.93;;;4.80;99.90;3.90;98766;;;;586947;242;24075;-84
2022/01/17 02:22:06;;;;;;;6.27;1.43;;;4.80;99.90;4.00;98763;;;;598514;234;24019;-83
2022/01/17 02:24:34;;;;;;;10.97;1.73;;;4.80;99.90;4.00;98764;;;;586212;233;24068;-86
2022/01/17 02:26:58;;;;;;;6.93;1.13;;;4.90;99.90;4.00;98766;;;;599519;234;24044;-85
2022/01/17 02:29:29;;;;;;;5.33;2.13;;;4.90;99.90;4.00;98760;;;;610219;234;24025;-86
2022/01/17 02:31:54;;;;;;;7.57;1.40;;;4.90;99.90;4.00;98748;;;;580210;241;24064;-84
2022/01/17 02:34:25;;;;;;;10.20;2.03;;;4.90;99.90;4.00;98753;;;;590284;239;24092;-83
2022/01/17 02:36:53;;;;;;;8.70;1.97;;;4.90;99.90;4.00;98719;;;;579145;234;24073;-84
2022/01/17 02:39:18;;;;;;;5.07;1.87;;;4.90;99.90;4.00;98748;;;;587192;239;24135;-83
2022/01/17 02:41:49;;;;;;;9.20;1.27;;;4.90;99.90;4.00;98754;;;;583385;240;24048;-84
2022/01/17 02:44:14;;;;;;;7.17;1.17;;;4.90;99.90;4.00;98713;;;;594574;240;24083;-81
2022/01/17 02:46:42;;;;;;;6.40;2.20;;;4.90;99.90;4.00;98721;;;;587288;240;24075;-83
2022/01/17 02:49:14;;;;;;;5.57;1.70;;;4.90;99.90;4.00;98709;;;;587649;240;24062;-83
2022/01/17 02:51:43;;;;;;;5.33;1.47;;;4.90;99.90;4.00;98704;;;;587873;240;24146;-85
2022/01/17 02:54:11;;;;;;;7.57;2.00;;;4.90;99.90;3.90;98657;;;;585954;240;24108;-80
2022/01/17 02:56:39;;;;;;;3.57;1.33;;;4.80;99.90;3.90;98692;;;;592515;234;24122;-80
2022/01/17 02:59:06;;;;;;;10.30;1.53;;;4.80;99.90;3.80;98667;;;;596014;235;24069;-85
2022/01/17 03:01:34;;;;;;;9.33;2.20;;;4.70;99.90;3.80;98667;;;;588661;237;24081;-85
2022/01/17 03:04:05;;;;;;;5.70;0.90;;;4.70;99.90;3.70;98649;;;;592914;237;24011;-82
2022/01/17 03:06:36;;;;;;;4.80;1.30;;;4.60;99.90;3.70;98605;;;;584417;240;24040;-81
2022/01/17 03:09:01;;;;;;;6.00;1.37;;;4.60;99.90;3.70;98626;;;;593414;241;24112;-83
2022/01/17 03:11:33;;;;;;;12.95;2.37;;;4.60;99.90;3.70;98606;;;;588476;239;35036;-85
2022/01/17 03:14:02;;;;;;;6.43;1.37;;;4.60;99.90;3.60;98605;;;;584585;241;24042;-82
2022/01/17 03:16:34;;;;;;;11.63;2.03;;;4.50;99.90;3.60;98590;;;;593598;236;24033;-82
2022/01/17 03:19:02;;;;;;;7.63;1.50;;;4.50;99.90;3.60;98591;;;;593597;236;24076;-82
2022/01/17 03:21:32;;;;;;;2.33;1.13;;;4.50;99.90;3.60;98602;;;;584119;241;24019;-81
2022/01/17 03:23:56;;;;;;;3.60;1.10;;;4.50;99.90;3.50;98561;;;;584655;241;24071;-80
2022/01/17 03:26:25;;;;;;;8.15;1.50;;;4.40;99.90;3.50;98564;;;;578409;241;34883;-84
2022/01/17 03:29:01;;;;;;;3.67;1.33;;;4.40;99.90;3.50;98564;;;;585010;240;24030;-84
2022/01/17 03:31:27;;;;;;;3.40;0.90;;;4.40;99.90;3.40;98553;;;;585146;245;24074;-80
2022/01/17 03:33:56;;;;;;;5.27;1.53;;;4.30;99.90;3.40;98552;;;;599396;234;24092;-81
2022/01/17 03:36:24;;;;;;;2.70;1.50;;;4.30;99.90;3.40;98551;;;;574191;244;24070;-85
2022/01/17 03:38:53;;;;;;;2.33;1.07;;;4.20;99.90;3.30;98558;;;;574694;241;24071;-81
2022/01/17 03:41:20;;;;;;;7.77;1.40;;;4.20;99.90;3.30;98546;;;;574608;242;24165;-82
2022/01/17 03:43:47;;;;;;;5.10;1.03;;;4.20;99.90;3.30;98550;;;;577082;245;24079;-82
2022/01/17 03:46:15;;;;;;;4.37;1.37;;;4.20;99.90;3.30;98555;;;;585890;242;24084;-86
2022/01/17 03:48:43;;;;;;;1.57;0.97;;;4.20;99.90;3.30;98520;;;;577242;245;24067;-87
2022/01/17 03:51:14;;;;;;;4.43;0.60;;;4.20;99.90;3.30;98501;;;;577199;244;25105;-84
2022/01/17 03:53:40;;;;;;;6.70;1.40;;;4.20;99.90;3.30;98490;;;;576854;244;24152;-84
2022/01/17 03:56:12;;;;;;;3.37;0.80;;;4.20;99.90;3.40;98489;;;;576931;245;24072;-82
2022/01/17 03:58:37;;;;;;;4.17;1.50;;;4.20;99.90;3.40;98495;;;;576895;245;24075;-83
2022/01/17 04:01:14;;;;;;;2.23;1.20;;;4.20;99.90;3.30;98481;;;;576323;245;24131;-82
2022/01/17 04:03:39;;;;;;;1.17;0.40;;;4.20;99.90;3.30;98494;;;;577442;244;24118;-80
2022/01/17 04:06:08;;;;;;;4.17;1.40;;;4.20;99.90;3.30;98469;;;;583922;240;24045;-80
2022/01/17 04:08:35;;;;;;;4.97;0.80;;;4.20;99.90;3.30;98496;;;;594840;240;24062;-82
2022/01/17 04:11:04;;;;;;;2.03;0.73;;;4.20;99.90;3.30;98460;;;;587688;240;24116;-80
2022/01/17 04:13:35;;;;;;;0.93;0.70;;;4.20;99.90;3.30;98448;;;;589560;238;24083;-80
2022/01/17 04:16:01;;;;;;;2.07;0.67;;;4.10;99.90;3.30;98415;;;;587524;239;24084;-81
2022/01/17 04:18:31;;;;;;;3.30;1.00;;;4.10;99.90;3.30;98425;;;;591572;240;24091;-82
2022/01/17 04:21:00;;;;;;;9.80;1.30;;;4.10;99.90;3.30;98437;;;;582389;240;24043;-82
2022/01/17 04:23:24;;;;;;;4.57;0.60;;;4.10;99.90;3.30;98437;;;;596227;240;24082;-78
2022/01/17 04:25:55;;;;;;;4.17;0.90;;;4.10;99.90;3.30;98415;;;;596905;237;24060;-78
2022/01/17 04:28:20;;;;;;;9.07;1.60;;;4.10;99.90;3.30;98421;;;;596488;235;24076;-77
2022/01/17 04:30:52;;;;;;;0.80;0.43;;;4.10;99.90;3.30;98423;;;;591566;240;24047;-77
2022/01/17 04:33:19;;;;;;;6.87;1.30;;;4.20;99.90;3.30;98421;;;;572464;251;24106;-77
2022/01/17 04:35:45;;;;;;;2.63;0.40;;;4.20;99.90;3.30;98401;;;;582486;246;24068;-77
2022/01/17 04:38:18;;;;;;;1.30;0.40;;;4.20;99.90;3.40;98407;;;;568039;248;24075;-79
2022/01/17 04:40:49;;;;;;;0.93;0.73;;;4.20;99.90;3.40;98400;;;;567687;251;24103;-78
2022/01/17 04:43:21;;;;;;;7.33;0.50;;;4.20;99.90;3.50;98402;;;;567588;251;24097;-78
2022/01/17 04:45:45;;;;;;;0.83;0.77;;;4.30;99.90;3.50;98405;;;;568842;247;24222;-78
2022/01/17 04:48:13;;;;;;;0.97;0.50;;;4.30;99.90;3.50;98391;;;;579151;246;24173;-77
2022/01/17 04:50:41;;;;;;;1.03;0.63;;;4.30;99.90;3.50;98357;;;;568569;251;24109;-77
2022/01/17 04:53:11;;;;;;;3.03;0.97;;;4.30;99.90;3.50;98352;;;;568469;251;24097;-79
2022/01/17 04:55:37;;;;;;;8.47;1.97;;;4.40;99.90;3.60;98354;;;;570502;251;24154;-79
2022/01/17 04:58:06;;;;;;;1.40;0.50;;;4.40;99.90;3.50;98360;;;;578565;246;24086;-79
2022/01/17 05:00:33;;;;;;;3.03;0.63;;;4.30;99.90;3.60;98334;;;;574464;245;24068;-78
2022/01/17 05:03:01;;;;;;;1.70;0.77;;;4.40;99.90;3.60;98337;;;;573374;250;24092;-80
2022/01/17 05:05:29;;;;;;;2.20;0.37;;;4.40;99.90;3.60;98335;;;;573166;248;24089;-78
2022/01/17 05:07:57;;;;;;;0.67;0.67;;;4.40;99.90;3.70;98312;;;;583630;244;24125;-77
2022/01/17 05:10:25;;;;;;;0.60;0.60;;;4.50;99.90;3.80;98324;;;;574437;246;24104;-78
2022/01/17 05:12:53;;;;;;;5.63;0.40;;;4.50;99.90;3.80;98302;;;;573224;248;24125;-79
2022/01/17 05:15:28;;;;;;;1.53;0.20;;;4.60;99.90;3.90;98288;;;;573153;245;24104;-80
2022/01/17 05:18:01;;;;;;;2.70;0.53;;;4.60;99.90;3.90;98283;;;;574457;246;24057;-81
2022/01/17 05:20:28;;;;;;;0.43;0.13;;;4.60;99.90;3.90;98284;;;;574231;246;24070;-79
2022/01/17 05:22:54;;;;;;;6.43;0.90;;;4.80;99.90;4.00;98285;;;;560531;252;24121;-80
2022/01/17 05:25:22;;;;;;;1.33;0.67;;;4.80;99.90;4.10;98299;;;;574416;246;24059;-79
2022/01/17 05:27:50;;;;;;;0.93;0.37;;;4.90;99.90;4.20;98294;;;;568610;249;25143;-78
2022/01/17 05:30:18;;;;;;;4.77;0.70;;;4.90;99.90;4.30;98328;;;;577107;248;24154;-80
2022/01/17 05:32:46;;;;;;;0.30;0.10;;;5.00;99.90;4.30;98375;;;;560945;251;24103;-80
2022/01/17 05:35:18;;;;;;;2.47;1.00;;;5.10;99.90;4.40;98394;;;;564029;251;25180;-79
2022/01/17 05:37:42;;;;;;;1.10;0.13;;;5.20;99.90;4.10;98556;;;;564220;251;25159;-80
2022/01/17 05:40:10;;;;;;;0.43;0.23;;;5.10;99.90;2.60;98495;;;;573777;246;26254;-79
2022/01/17 05:42:40;;;;;;;0.27;0.27;;;4.20;99.90;1.40;98501;;;;572500;248;24142;-79
2022/01/17 05:45:06;;;;;;;0.20;0.20;;;2.30;99.90;0.50;98500;;;;573902;246;24084;-78
2022/01/17 05:47:34;;;;;;;0.20;0.20;;;2.30;99.90;0.00;98501;;;;569714;248;24060;-79
2022/01/17 05:50:02;;;;;;;0.10;0.10;;;1.60;99.90;-0.20;98488;;;;583085;246;24093;-80
2022/01/17 05:52:31;;;;;;;0.17;0.17;;;0.90;99.90;-0.40;98511;;;;558576;254;24148;-79
2022/01/17 05:55:02;;;;;;;0.87;0.40;;;0.90;99.90;-0.50;98536;;;;558069;252;24221;-80
2022/01/17 05:57:27;;;;;;;0.23;0.23;;;0.70;99.90;-0.60;98539;;;;560797;250;24177;-81
2022/01/17 05:59:55;;;;;;;0.40;0.40;;;0.60;99.90;-0.70;98539;;;;572916;250;24185;-81
2022/01/17 06:02:26;;;;;;;0.27;0.23;;;0.50;99.90;-0.70;98526;;;;562541;251;24157;-81
2022/01/17 06:04:50;;;;;;;0.30;0.30;;;0.50;99.90;-0.70;98516;;;;569344;249;24183;-82
2022/01/17 06:07:18;;;;;;;1.20;0.53;;;0.40;99.90;-0.70;98507;;;;562740;251;24115;-82
2022/01/17 06:09:46;;;;;;;0.20;0.10;;;0.40;99.90;-0.70;98536;;;;562620;251;24112;-83
2022/01/17 06:12:14;;;;;;;0.20;0.20;;;0.40;99.90;-0.70;98530;;;;562610;251;24116;-84
2022/01/17 06:14:42;;;;;;;1.23;0.40;;;0.40;99.90;-0.80;98539;;;;562588;251;24120;-83
2022/01/17 06:17:11;;;;;;;1.13;0.50;;;0.30;99.90;-0.80;98529;;;;562360;251;24133;-83
2022/01/17 06:19:39;;;;;;;3.00;1.10;;;0.30;99.90;-0.80;98537;;;;562347;251;24154;-82
2022/01/17 06:22:10;;;;;;;2.80;0.77;;;0.30;99.90;-0.80;98508;;;;562343;251;24140;-82
2022/01/17 06:24:35;;;;;;;5.93;1.07;;;0.30;99.90;-0.80;98500;;;;562277;251;24164;-81
2022/01/17 06:27:03;;;;;;;1.43;0.40;;;0.30;99.90;-0.80;98483;;;;562406;251;24167;-82
2022/01/17 06:29:31;;;;;;;0.33;0.33;;;0.30;99.90;-0.80;98502;;;;570753;247;24144;-81
2022/01/17 06:32:00;;;;;;;1.30;0.47;;;0.30;99.90;-0.80;98510;;;;572170;246;24123;-81
2022/01/17 06:34:28;;;;;;;2.80;0.53;;;0.30;99.90;-0.80;98511;;;;562100;251;24119;-80
2022/01/17 06:36:55;;;;;;;1.70;0.60;;;0.30;99.90;-0.80;98520;;;;561858;251;24182;-82
2022/01/17 06:39:23;;;;;;;0.30;0.30;;;0.30;99.90;-0.80;98540;;;;561764;251;24201;-80
2022/01/17 06:41:51;;;;;;;0.43;0.43;;;0.30;99.90;-0.80;98556;;;;561670;251;24165;-81
2022/01/17 06:44:20;;;;;;;2.72;0.80;;;0.30;99.90;-0.80;98558;;;;565249;247;35281;-80
2022/01/17 06:46:48;;;;;;;0.47;0.43;;;0.30;99.90;-0.70;98554;;;;561686;251;24151;-81
2022/01/17 06:49:16;;;;;;;0.90;0.50;;;0.30;99.90;-0.70;98563;;;;561862;251;24159;-81
2022/01/17 06:51:44;;;;;;;1.80;0.40;;;0.40;99.90;-0.70;98570;;;;561706;251;24156;-80
2022/01/17 06:54:12;;;;;;;1.83;0.60;;;0.40;99.90;-0.70;98578;;;;561625;251;24179;-79
2022/01/17 06:56:43;;;;;;;0.30;0.30;;;0.40;99.90;-0.70;98610;;;;561838;251;24119;-79
2022/01/17 06:59:07;;;;;;;1.23;0.47;;;0.40;99.90;-0.70;98624;;;;570762;242;24077;-78
2022/01/17 07:01:38;;;;;;;1.80;0.30;;;0.40;99.90;-0.70;98640;;;;589538;238;24094;-77
2022/01/17 07:04:03;;;;;;;3.20;0.53;;;0.40;99.90;-0.70;98649;;;;568998;242;24103;-79
2022/01/17 07:06:31;;;;;;;0.53;0.53;;;0.40;99.90;-0.70;98677;;;;580304;241;24187;-79
2022/01/17 07:09:00;;;;;;;0.40;0.40;;;0.40;99.90;-0.70;98695;;;;578160;241;24116;-80
2022/01/17 07:11:28;;;;;;;0.30;0.30;;;0.40;99.90;-0.70;98669;;;;572535;242;24093;-79
2022/01/17 07:13:56;;;;;;;1.00;0.40;;;0.40;99.90;-0.60;98652;;;;583348;246;24095;-79
2022/01/17 07:16:23;;;;;;;0.53;0.50;;;0.40;99.90;-0.60;98627;;;;575218;241;24122;-80
2022/01/17 07:18:52;;;;;;;0.60;0.60;;;0.40;99.90;-0.60;98622;;;;562678;251;24176;-79
2022/01/17 07:21:20;;;;;;;1.43;0.67;;;0.40;99.90;-0.60;98621;;;;562547;251;24151;-80
2022/01/17 07:23:52;;;;;;;1.90;0.87;;;0.40;99.90;-0.70;98627;;;;562584;251;24220;-79
2022/01/17 07:26:16;;;;;;;6.20;1.23;;;0.40;99.90;-0.60;98652;;;;562444;251;24232;-81
2022/01/17 07:28:44;;;;;;;0.30;0.30;;;0.40;99.90;-0.60;98658;;;;562232;251;24116;-81
2022/01/17 07:31:12;;;;;;;0.93;0.63;;;0.40;99.90;-0.60;98656;;;;562273;251;24158;-83
2022/01/17 07:33:40;;;;;;;0.67;0.50;;;0.40;99.90;-0.60;98645;;;;565881;242;24114;-81
2022/01/17 07:36:07;;;;;;;1.20;1.10;;;0.40;99.90;-0.60;98666;;;;570728;251;24131;-80
2022/01/17 07:38:39;;;;;;;0.30;0.30;;;0.10;99.90;-0.60;98686;;;;561937;251;24149;-83
2022/01/17 07:41:03;;;;;;;0.63;0.40;;;0.40;99.90;-0.60;98719;;;;562289;251;24125;-81
2022/01/17 07:43:32;;;;;;;0.67;0.63;;;0.40;99.90;-0.60;98714;;;;575451;247;24054;-80
2022/01/17 07:46:06;;;;;;;3.70;1.43;;;0.40;99.90;-0.70;98720;;;;584726;241;24049;-78
2022/01/17 07:48:58;;;;;;;1.03;0.60;;;0.40;99.90;-0.70;98711;;;;566317;251;24079;-81
2022/01/17 07:51:14;;;;;;;0.67;0.60;;;0.40;99.90;-0.70;98728;;;;576781;241;24047;-79
2022/01/17 07:53:42;;;;;;;4.13;0.90;;;0.40;99.90;-0.70;98732;;;;562356;246;24091;-79
2022/01/17 07:56:10;;;;;;;0.57;0.53;;;0.40;99.90;-0.70;98745;;;;565427;245;24145;-80
2022/01/17 07:58:38;;;;;;;1.10;0.57;;;0.30;99.90;-0.70;98764;;;;573557;243;24136;-79
2022/01/17 08:01:09;;;;;;;4.73;0.90;;;0.00;99.90;-0.60;98760;;;;575675;241;24089;-79
2022/01/17 08:03:37;;;;;;;1.67;0.70;;;0.50;99.90;-0.50;98760;;;;570068;246;24134;-81
2022/01/17 08:06:08;;;;;;;0.53;0.40;;;0.50;99.90;-0.50;98754;;;;566130;248;24068;-82
2022/01/17 08:08:33;;;;;;;2.43;0.53;;;0.50;99.90;-0.60;98783;;;;570491;243;24117;-81
2022/01/17 08:11:04;;;;;;;0.57;0.30;;;0.50;99.90;-0.70;98806;;;;566015;246;24086;-81
2022/01/17 08:13:29;;;;;;;0.57;0.57;;;0.40;99.90;-0.70;98820;;;;554671;249;24130;-80
2022/01/17 08:15:57;;;;;;;3.80;0.80;;;0.20;99.90;-0.80;98823;;;;565846;246;24091;-81
2022/01/17 08:18:24;;;;;;;3.70;1.02;;;0.20;99.90;-0.80;98837;;;;567429;247;35129;-81
2022/01/17 08:20:53;;;;;;;3.77;1.00;;;0.30;99.90;-0.80;98851;;;;572150;243;24124;-80
2022/01/17 08:23:21;;;;;;;0.77;0.70;;;0.20;99.90;-0.80;98874;;;;582759;243;24099;-79
2022/01/17 08:25:49;;;;;;;0.80;0.60;;;0.30;99.90;-0.80;98845;;;;578270;243;24068;-79
2022/01/17 08:28:18;;;;;;;0.97;0.67;;;0.20;99.90;-0.80;98856;;;;562336;250;24263;-80
2022/01/17 08:30:48;;;;;;;2.03;0.80;;;0.00;99.90;-0.80;98860;;;;576177;242;25090;-80
2022/01/17 08:33:21;;;;;;;7.83;0.87;;;0.20;99.90;-0.80;98856;;;;580054;239;24096;-80
2022/01/17 08:35:45;;;;;;;2.30;0.60;;;0.10;99.90;-0.80;98868;;;;567098;248;24109;-79
2022/01/17 08:38:13;;;;;;;0.63;0.50;;;-0.10;99.90;-0.80;98853;;;;561764;253;24097;-80
2022/01/17 08:40:41;;;;;;;0.40;0.40;;;0.10;99.90;-0.90;98846;;;;566966;244;24052;-79
2022/01/17 08:43:10;;;;;;;0.50;0.20;;;0.30;99.90;-0.90;98859;;;;568032;248;24197;-79
2022/01/17 08:45:41;;;;;;;7.07;1.10;;;-0.20;99.90;-0.80;98855;;;;570673;244;24054;-80
2022/01/17 08:48:09;;;;;;;0.70;0.53;;;0.30;99.90;-0.80;98859;;;;573678;242;24146;-82
2022/01/17 08:50:40;;;;;;;0.63;0.40;;;0.20;99.90;-0.80;98869;;;;575697;241;24113;-81
2022/01/17 08:53:05;;;;;;;0.40;0.40;;;0.20;99.90;-0.80;98853;;;;584526;241;24061;-79
2022/01/17 08:55:33;;;;;;;0.50;0.40;;;0.20;99.90;-0.80;98880;;;;592272;237;24069;-81
2022/01/17 08:58:01;;;;;;;0.83;0.40;;;0.20;99.90;-0.80;98876;;;;591556;242;24059;-79
2022/01/17 09:00:31;;;;;;;0.87;0.50;;;0.20;99.90;-0.80;98873;;;;577525;244;24102;-79
2022/01/17 09:02:57;;;;;;;3.13;0.83;;;0.30;99.90;-0.80;98877;;;;564669;248;24143;-80
2022/01/17 09:05:25;;;;;;;1.17;0.47;;;0.40;99.90;-0.80;98892;;;;571597;248;24094;-80
2022/01/17 09:07:53;;;;;;;2.10;0.60;;;0.10;99.90;-0.70;98899;;;;576376;247;24093;-80
2022/01/17 09:10:21;;;;;;;0.83;0.30;;;0.20;99.90;-0.70;98921;;;;573734;247;24128;-80
2022/01/17 09:12:51;;;;;;;4.70;1.07;;;0.40;99.90;-0.60;98911;;;;571078;247;24097;-80
2022/01/17 09:15:17;;;;;;;0.30;0.30;;;0.40;99.90;-0.60;98902;;;;577277;247;24117;-81
2022/01/17 09:17:45;;;;;;;0.30;0.30;;;0.50;99.90;-0.60;98903;;;;577347;247;24079;-80
2022/01/17 09:20:13;;;;;;;0.47;0.47;;;1.60;99.90;-0.50;98918;;;;565576;251;24131;-80
2022/01/17 09:22:41;;;;;;;0.20;0.20;;;0.80;99.90;-0.50;98924;;;;570156;251;24115;-80
2022/01/17 09:25:09;;;;;;;0.37;0.30;;;0.70;99.90;-0.40;98941;;;;566897;247;24138;-81
2022/01/17 09:27:36;;;;;;;0.20;0.20;;;0.70;99.90;-0.40;98964;;;;580115;247;24130;-82
2022/01/17 09:30:08;;;;;;;4.23;0.37;;;0.70;99.90;-0.40;98946;;;;571166;247;24161;-77
2022/01/17 09:32:37;;;;;;;1.13;0.63;;;0.80;99.90;-0.30;98970;;;;571703;246;25282;-79
2022/01/17 09:35:05;;;;;;;2.00;0.63;;;0.80;99.90;-0.30;98981;;;;570584;246;24066;-80
2022/01/17 09:37:33;;;;;;;0.43;0.43;;;0.80;99.90;-0.30;98964;;;;577849;246;24171;-79
2022/01/17 09:40:01;;;;;;;3.80;1.43;;;0.90;99.90;-0.20;98979;;;;575935;246;24103;-80
2022/01/17 09:42:35;;;;;;;0.83;0.83;;;0.90;99.90;-0.20;98990;;;;571066;251;24071;-79
2022/01/17 09:44:56;;;;;;;0.87;0.43;;;0.90;99.90;-0.10;98992;;;;570632;246;24109;-79
2022/01/17 09:47:24;;;;;;;0.80;0.80;;;0.90;99.90;-0.10;99007;;;;570971;251;24093;-80
2022/01/17 09:49:55;;;;;;;3.43;1.00;;;1.10;99.90;0.00;99034;;;;573421;247;24084;-80
2022/01/17 09:52:35;;;;;;;0.50;0.50;;;1.40;99.90;0.20;99055;;;;576540;246;24089;-81
2022/01/17 09:55:22;;;;;;;0.40;0.40;;;1.10;99.90;0.20;99025;;;;572322;246;24089;-80
2022/01/17 09:57:52;;;;;;;0.57;0.57;;;1.40;99.90;0.20;99039;;;;572352;246;24099;-82
2022/01/17 10:00:24;;;;;;;1.27;0.80;;;1.40;99.90;0.20;99043;;;;579492;242;24098;-81
2022/01/17 10:02:49;;;;;;;7.07;0.90;;;1.60;99.90;0.20;99035;;;;574611;242;24090;-80
2022/01/17 10:05:20;;;;;;;0.77;0.77;;;1.70;99.90;0.40;99058;;;;573704;239;24127;-82
2022/01/17 10:07:54;;;;;;;0.50;0.50;;;1.70;99.90;0.60;99065;;;;576366;242;24094;-80
2022/01/17 10:11:00;;;;;;;0.73;0.73;;;1.80;99.90;0.70;99078;;;;571775;243;24123;-81
2022/01/17 10:13:38;;;;;;;1.70;0.40;;;1.90;99.90;0.80;99077;;;;566949;242;24107;-80
2022/01/17 10:16:12;;;;;;;0.77;0.57;;;1.80;99.90;0.60;99086;;;;562064;250;24140;-80
2022/01/17 10:18:53;;;;;;;2.80;0.30;;;1.80;99.90;0.50;99079;;;;569325;247;24136;-80
2022/01/17 10:21:38;;;;;;;0.60;0.60;;;1.90;99.90;0.50;99083;;;;575115;248;24093;-80
2022/01/17 10:29:42;;;;;;;0.20;0.20;;;1.60;99.90;0.50;99118;;;;566372;251;24129;-80
2022/01/17 10:35:25;;;;;;;9.90;1.17;;;1.80;99.90;0.70;99125;;;;582234;243;26334;-81
2022/01/17 10:38:08;;;;;;;1.57;0.90;;;2.10;99.90;0.80;99131;;;;572291;244;24054;-81
2022/01/17 10:40:41;;;;;;;4.00;1.02;;;1.90;99.90;0.80;99151;;;;566806;247;34984;-81
2022/01/17 10:43:25;;;;;;;3.33;0.80;;;2.00;99.90;0.80;99154;;;;567843;246;24054;-83
2022/01/17 10:45:50;;;;;;;1.90;0.70;;;2.20;99.90;0.80;99150;;;;557915;252;24145;-81
2022/01/17 10:48:19;;;;;;;1.00;0.77;;;2.00;99.90;0.70;99155;;;;569316;246;24120;-78
2022/01/17 10:50:51;;;;;;;8.40;1.10;;;2.00;99.90;0.80;99162;;;;576739;245;24168;-81
2022/01/17 10:53:19;;;;;;;1.53;1.37;;;2.30;99.90;0.80;99184;;;;575675;246;24146;-83
2022/01/17 10:55:55;;;;;;;0.37;0.37;;;2.00;99.90;0.90;99203;;;;571871;246;24106;-84
2022/01/17 10:58:27;;;;;;;0.50;0.50;;;2.10;99.90;0.90;99193;;;;570127;246;24126;-81
2022/01/17 11:00:58;;;;;;;3.13;0.50;;;2.30;99.90;1.10;99196;;;;566971;251;24099;-82
2022/01/17 11:03:27;;;;;;;0.70;0.43;;;2.40;99.90;1.20;99220;;;;576163;246;24129;-81
2022/01/17 11:05:55;;;;;;;1.47;0.33;;;2.50;99.90;1.30;99234;;;;581845;242;24098;-82
2022/01/17 11:08:23;;;;;;;3.50;0.80;;;2.50;99.90;1.40;99227;;;;570699;247;24088;-82
2022/01/17 11:10:53;;;;;;;2.00;0.50;;;2.50;99.90;1.30;99249;;;;568127;246;24158;-81
2022/01/17 11:13:24;;;;;;;1.40;0.30;;;2.70;99.90;1.30;99227;;;;573558;242;24211;-80
2022/01/17 11:15:50;;;;;;;1.67;1.30;;;2.60;99.90;1.50;99235;;;;586110;242;24118;-84
2022/01/17 11:18:23;;;;;;;1.10;0.73;;;2.70;99.90;1.40;99256;;;;584057;243;24128;-80
2022/01/17 11:20:49;;;;;;;0.60;0.60;;;2.60;99.90;1.40;99265;;;;564405;246;24109;-82
2022/01/17 11:23:21;;;;;;;5.37;1.00;;;2.80;99.90;1.50;99280;;;;567085;247;24099;-80
2022/01/17 11:25:52;;;;;;;1.97;1.43;;;2.80;99.90;1.40;99272;;;;576410;246;24184;-82
2022/01/17 11:28:16;;;;;;;0.50;0.50;;;2.60;99.90;1.40;99270;;;;572750;246;24140;-80
2022/01/17 11:30:47;;;;;;;3.13;1.13;;;2.80;99.90;1.30;99316;;;;563298;241;24174;-81
2022/01/17 11:33:12;;;;;;;4.63;0.97;;;2.80;99.90;1.30;99297;;;;581481;241;24104;-81
2022/01/17 11:35:45;;;;;;;3.12;1.33;;;2.70;99.90;1.30;99290;;;;569828;243;46292;-82
2022/01/17 11:38:11;;;;;;;0.93;0.80;;;2.60;99.90;1.30;99305;;;;568886;247;24092;-81
2022/01/17 11:40:40;;;;;;;2.43;0.67;;;4.50;99.90;1.40;99296;;;;569359;244;24080;-83
2022/01/17 11:43:23;;;;;;;2.15;1.02;;;2.80;99.90;1.40;99331;;;;566715;248;35380;-83
2022/01/17 11:45:49;;;;;;;2.20;0.73;;;2.60;99.90;1.30;99350;;;;580126;246;24131;-84
2022/01/17 11:48:17;;;;;;;3.40;1.60;;;2.80;99.90;1.30;99374;;;;570068;247;24153;-84
2022/01/17 11:50:47;;;;;;;3.93;0.90;;;2.60;99.90;1.30;99364;;;;570495;246;24097;-84